createdAt,value
2023-05-05T00:01:53.504Z,19.75
2023-05-05T00:04:22.731Z,13.13
2023-05-05T00:06:50.789Z,16.88
2023-05-05T00:09:18.263Z,13.25
2023-05-05T00:11:45.262Z,11.05
2023-05-05T00:14:12.945Z,14.88
2023-05-05T00:16:40.085Z,12.77
2023-05-05T00:19:07.108Z,13.52
2023-05-05T00:21:34.127Z,15.93
2023-05-05T00:24:01.255Z,14.65
2023-05-05T00:26:28.260Z,16.83
2023-05-05T00:28:55.826Z,17.60
2023-05-05T00:31:23.700Z,15.50
2023-05-05T00:33:50.702Z,16.00
2023-05-05T00:36:18.449Z,15.10
2023-05-05T00:38:45.421Z,14.75
2023-05-05T00:41:13.480Z,13.93
2023-05-05T00:43:40.467Z,11.85
2023-05-05T00:46:26.812Z,15.00
2023-05-05T00:48:54.948Z,16.20
2023-05-05T00:51:24.533Z,13.88
2023-05-05T00:53:52.303Z,17.38
2023-05-05T00:56:22.031Z,15.13
2023-05-05T00:58:49.864Z,17.33
2023-05-05T01:01:17.684Z,19.90
2023-05-05T01:03:45.315Z,19.52
2023-05-05T01:06:36.590Z,18.50
2023-05-05T01:09:27.773Z,19.85
2023-05-05T01:12:20.111Z,16.50
2023-05-05T01:15:32.897Z,13.48
2023-05-05T01:18:11.987Z,22.63
2023-05-05T01:21:06.533Z,22.10
2023-05-05T01:23:58.319Z,17.05
2023-05-05T01:27:18.089Z,23.33
2023-05-05T01:30:10.486Z,19.42
2023-05-05T01:32:49.822Z,19.15
2023-05-05T01:35:31.818Z,15.13
2023-05-05T01:38:21.437Z,15.38
2023-05-05T01:40:59.625Z,16.67
2023-05-05T01:43:33.850Z,19.60
2023-05-05T01:46:03.253Z,11.80
2023-05-05T01:48:31.108Z,20.05
2023-05-05T01:51:00.561Z,13.30
2023-05-05T01:53:28.235Z,14.25
2023-05-05T01:55:57.850Z,14.93
2023-05-05T01:58:29.033Z,19.67
2023-05-05T02:00:58.915Z,15.27
2023-05-05T02:03:29.890Z,17.67
2023-05-05T02:06:00.325Z,22.83
2023-05-05T02:08:30.051Z,15.80
2023-05-05T02:10:59.948Z,14.40
2023-05-05T02:13:32.374Z,16.08
2023-05-05T02:18:28.556Z,19.23
2023-05-05T02:20:55.726Z,17.88
2023-05-05T02:23:23.030Z,19.50
2023-05-05T02:25:55.478Z,18.50
2023-05-05T02:31:00.847Z,20.48
2023-05-05T02:33:34.134Z,15.00
2023-05-05T02:36:22.625Z,19.38
2023-05-05T02:39:03.666Z,14.40
2023-05-05T02:41:39.575Z,16.73
2023-05-05T02:44:15.543Z,19.77
2023-05-05T02:46:43.342Z,18.50
2023-05-05T02:49:10.655Z,16.27
2023-05-05T02:51:39.373Z,23.33
2023-05-05T02:54:12.725Z,14.88
2023-05-05T02:56:47.249Z,18.15
2023-05-05T02:59:36.583Z,17.42
2023-05-05T03:02:27.366Z,30.70
2023-05-05T03:05:16.112Z,23.77
2023-05-05T03:08:08.534Z,15.50
2023-05-05T03:10:47.594Z,20.38
2023-05-05T03:13:20.085Z,20.58
2023-05-05T03:18:22.371Z,20.35
2023-05-05T03:20:56.866Z,23.85
2023-05-05T03:23:24.041Z,25.15
2023-05-05T03:28:30.674Z,19.48
2023-05-05T03:31:01.324Z,26.60
2023-05-05T03:33:28.354Z,22.98
2023-05-05T03:35:58.533Z,26.40
2023-05-05T03:38:26.329Z,17.02
2023-05-05T03:40:53.830Z,14.85
2023-05-05T03:43:23.373Z,23.85
2023-05-05T03:45:50.942Z,21.90
2023-05-05T03:48:18.855Z,22.67
2023-05-05T03:50:46.479Z,20.70
2023-05-05T03:53:14.623Z,19.48
2023-05-05T03:55:42.666Z,17.45
2023-05-05T03:58:11.200Z,22.02
2023-05-05T04:00:38.188Z,18.42
2023-05-05T04:03:05.961Z,20.38
2023-05-05T04:05:33.052Z,22.75
2023-05-05T04:08:00.654Z,24.63
2023-05-05T04:10:27.690Z,28.92
2023-05-05T04:12:54.733Z,16.90
2023-05-05T04:15:22.204Z,18.50
2023-05-05T04:17:50.050Z,20.73
2023-05-05T04:20:17.483Z,18.17
2023-05-05T04:22:44.751Z,14.50
2023-05-05T04:25:11.771Z,16.70
2023-05-05T04:27:38.743Z,13.00
2023-05-05T04:30:09.602Z,13.20
2023-05-05T04:32:39.113Z,14.85
2023-05-05T04:35:08.645Z,13.63
2023-05-05T04:37:35.720Z,20.95
2023-05-05T04:40:03.488Z,13.27
2023-05-05T04:42:32.751Z,14.90
2023-05-05T04:44:59.804Z,15.25
2023-05-05T04:47:26.906Z,14.48
2023-05-05T04:49:57.174Z,12.07
2023-05-05T04:52:24.329Z,14.55
2023-05-05T04:54:51.833Z,12.50
2023-05-05T04:57:18.961Z,8.90
2023-05-05T04:59:46.059Z,17.17
2023-05-05T05:02:13.523Z,12.45
2023-05-05T05:04:41.225Z,13.38
2023-05-05T05:07:09.310Z,12.18
2023-05-05T05:09:36.993Z,14.40
2023-05-05T05:12:04.501Z,11.45
2023-05-05T05:14:39.718Z,13.80
2023-05-05T05:17:07.373Z,11.38
2023-05-05T05:19:37.102Z,16.85
2023-05-05T05:22:04.196Z,15.20
2023-05-05T05:24:34.772Z,13.38
2023-05-05T05:27:01.879Z,16.58
2023-05-05T05:29:29.128Z,13.27
2023-05-05T05:31:57.802Z,13.88
2023-05-05T05:34:24.944Z,17.08
2023-05-05T05:36:52.049Z,15.13
2023-05-05T05:39:21.810Z,21.13
2023-05-05T05:41:48.866Z,20.02
2023-05-05T05:44:15.941Z,15.05
2023-05-05T05:46:43.155Z,12.40
2023-05-05T05:49:10.461Z,17.60
2023-05-05T05:51:37.548Z,13.48
2023-05-05T05:54:04.708Z,16.10
2023-05-05T05:56:31.846Z,13.52
2023-05-05T05:58:59.630Z,16.92
2023-05-05T06:01:27.396Z,16.30
2023-05-05T06:03:54.566Z,14.10
2023-05-05T06:06:22.043Z,15.43
2023-05-05T06:08:49.072Z,16.67
2023-05-05T06:11:16.777Z,19.42
2023-05-05T06:13:44.314Z,11.85
2023-05-05T06:16:11.616Z,18.00
2023-05-05T06:18:41.038Z,13.10
2023-05-05T06:21:08.413Z,18.90
2023-05-05T06:23:36.064Z,16.65
2023-05-05T06:26:05.385Z,12.80
2023-05-05T06:28:32.686Z,11.93
2023-05-05T06:30:59.700Z,15.82
2023-05-05T06:33:26.729Z,12.23
2023-05-05T06:35:54.363Z,12.60
2023-05-05T06:38:21.491Z,13.25
2023-05-05T06:40:49.837Z,13.00
2023-05-05T06:43:17.587Z,11.73
2023-05-05T06:45:52.132Z,17.83
2023-05-05T06:48:19.211Z,13.02
2023-05-05T06:50:47.404Z,12.35
2023-05-05T06:53:14.515Z,16.95
2023-05-05T06:55:47.204Z,10.05
2023-05-05T06:58:14.313Z,13.63
2023-05-05T07:00:42.266Z,13.07
2023-05-05T07:03:09.718Z,17.27
2023-05-05T07:05:36.892Z,12.55
2023-05-05T07:08:04.147Z,8.75
2023-05-05T07:10:34.166Z,9.77
2023-05-05T07:13:01.363Z,13.23
2023-05-05T07:15:29.621Z,12.35
2023-05-05T07:17:57.783Z,11.98
2023-05-05T07:20:25.838Z,10.13
2023-05-05T07:22:52.987Z,12.27
2023-05-05T07:25:21.181Z,10.40
2023-05-05T07:27:48.194Z,9.82
2023-05-05T07:30:18.390Z,11.75
2023-05-05T07:32:46.731Z,15.90
2023-05-05T07:35:14.063Z,13.15
2023-05-05T07:37:41.075Z,10.07
2023-05-05T07:40:09.042Z,11.30
2023-05-05T07:42:36.414Z,12.85
2023-05-05T07:45:04.432Z,9.30
2023-05-05T07:47:31.658Z,8.25
2023-05-05T07:49:58.804Z,14.05
2023-05-05T07:52:43.358Z,14.75
2023-05-05T07:55:12.262Z,12.80
2023-05-05T07:57:39.689Z,10.30
2023-05-05T08:00:07.973Z,9.23
2023-05-05T08:02:41.582Z,13.63
2023-05-05T08:05:09.189Z,14.07
2023-05-05T08:07:41.032Z,12.25
2023-05-05T08:10:12.429Z,7.60
2023-05-05T08:12:40.579Z,13.43
2023-05-05T08:15:08.654Z,8.82
2023-05-05T08:17:53.319Z,13.18
2023-05-05T08:20:21.040Z,8.98
2023-05-05T08:22:48.442Z,11.25
2023-05-05T08:25:15.675Z,15.85
2023-05-05T08:27:43.302Z,9.13
2023-05-05T08:30:11.239Z,11.30
2023-05-05T08:32:41.578Z,9.95
2023-05-05T08:35:09.447Z,11.25
2023-05-05T08:37:36.782Z,12.57
2023-05-05T08:40:04.979Z,10.68
2023-05-05T08:42:36.929Z,11.57
2023-05-05T08:45:10.468Z,12.25
2023-05-05T08:47:39.322Z,12.30
2023-05-05T08:50:09.942Z,9.70
2023-05-05T08:52:53.745Z,22.05
2023-05-05T08:55:26.826Z,7.50
2023-05-05T08:57:58.052Z,11.75
2023-05-05T09:00:27.202Z,9.40
2023-05-05T09:03:00.181Z,14.18
2023-05-05T09:05:27.684Z,11.00
2023-05-05T09:07:54.804Z,11.50
2023-05-05T09:10:22.148Z,9.25
2023-05-05T09:12:51.669Z,10.23
2023-05-05T09:15:21.010Z,8.90
2023-05-05T09:17:48.020Z,7.40
2023-05-05T09:20:15.512Z,4.75
2023-05-05T09:22:45.619Z,7.43
2023-05-05T09:25:18.414Z,8.43
2023-05-05T09:27:49.580Z,9.32
2023-05-05T09:30:25.048Z,9.80
2023-05-05T09:32:54.782Z,8.23
2023-05-05T09:35:23.212Z,9.43
2023-05-05T09:37:50.266Z,6.25
2023-05-05T09:40:19.704Z,4.80
2023-05-05T09:42:47.473Z,10.23
2023-05-05T09:45:17.684Z,5.75
2023-05-05T09:47:46.808Z,7.20
2023-05-05T09:50:16.277Z,7.75
2023-05-05T09:52:43.595Z,12.73
2023-05-05T09:55:19.779Z,8.00
2023-05-05T09:57:47.520Z,5.15
2023-05-05T10:00:15.319Z,8.45
2023-05-05T10:02:42.528Z,12.40
2023-05-05T10:05:16.396Z,5.80
2023-05-05T10:07:46.500Z,5.60
2023-05-05T10:10:18.372Z,6.43
2023-05-05T10:12:49.973Z,12.52
2023-05-05T10:15:17.723Z,7.97
2023-05-05T10:18:05.943Z,9.20
2023-05-05T10:20:38.693Z,5.78
2023-05-05T10:23:14.440Z,7.70
2023-05-05T10:26:00.030Z,7.82
2023-05-05T10:28:43.954Z,6.47
2023-05-05T10:31:25.702Z,5.75
2023-05-05T10:34:13.103Z,11.10
2023-05-05T10:36:40.257Z,11.15
2023-05-05T10:39:09.383Z,9.68
2023-05-05T10:41:37.733Z,7.15
2023-05-05T10:44:06.658Z,8.27
2023-05-05T10:46:33.821Z,6.78
2023-05-05T10:50:03.750Z,5.65
2023-05-05T10:53:26.099Z,8.77
2023-05-05T10:56:05.281Z,6.82
2023-05-05T10:58:51.220Z,5.20
2023-05-05T11:01:34.814Z,8.55
2023-05-05T11:04:23.399Z,7.32
2023-05-05T11:07:10.475Z,4.10
2023-05-05T11:10:04.349Z,6.57
2023-05-05T11:12:53.291Z,8.52
2023-05-05T11:15:29.454Z,7.13
2023-05-05T11:17:58.678Z,8.88
2023-05-05T11:20:40.843Z,7.80
2023-05-05T11:23:07.907Z,6.75
2023-05-05T11:25:35.253Z,6.80
2023-05-05T11:28:25.582Z,5.60
2023-05-05T11:30:58.871Z,10.13
2023-05-05T11:33:38.270Z,8.77
2023-05-05T11:36:15.014Z,7.97
2023-05-05T11:39:21.109Z,6.63
2023-05-05T11:42:22.200Z,10.85
2023-05-05T11:44:49.890Z,9.70
2023-05-05T11:47:19.831Z,7.97
2023-05-05T11:49:47.066Z,8.00
2023-05-05T11:52:15.153Z,8.82
2023-05-05T11:54:48.999Z,6.97
2023-05-05T11:57:21.353Z,7.00
2023-05-05T11:59:58.984Z,5.75
2023-05-05T12:02:28.696Z,6.60
2023-05-05T12:04:58.212Z,9.07
2023-05-05T12:07:29.082Z,8.20
2023-05-05T12:09:57.931Z,4.88
2023-05-05T12:12:40.127Z,4.75
2023-05-05T12:15:09.536Z,3.58
2023-05-05T12:17:45.941Z,7.60
2023-05-05T12:20:13.850Z,6.75
2023-05-05T12:22:41.165Z,6.90
2023-05-05T12:25:09.646Z,6.15
2023-05-05T12:27:41.777Z,13.70
2023-05-05T12:30:16.187Z,9.43
2023-05-05T12:32:44.752Z,9.02
2023-05-05T12:35:12.859Z,9.27
2023-05-05T12:37:40.643Z,12.55
2023-05-05T12:40:28.130Z,7.32
2023-05-05T12:42:55.423Z,9.15
2023-05-05T12:45:22.444Z,7.90
2023-05-05T12:47:49.909Z,3.95
2023-05-05T12:50:33.360Z,5.70
2023-05-05T12:53:00.939Z,6.07
2023-05-05T12:55:38.004Z,6.28
2023-05-05T12:58:05.477Z,7.70
2023-05-05T13:00:32.486Z,4.70
2023-05-05T13:02:59.699Z,8.50
2023-05-05T13:05:38.007Z,7.78
2023-05-05T13:08:05.352Z,6.63
2023-05-05T13:10:32.340Z,6.03
2023-05-05T13:12:59.405Z,4.82
2023-05-05T13:15:27.351Z,8.23
2023-05-05T13:18:01.273Z,4.28
2023-05-05T13:20:28.514Z,4.10
2023-05-05T13:22:55.521Z,6.18
2023-05-05T13:25:22.806Z,8.18
2023-05-05T13:27:49.821Z,8.80
2023-05-05T13:30:16.891Z,5.57
2023-05-05T13:32:43.896Z,6.90
2023-05-05T13:35:13.207Z,6.93
2023-05-05T13:37:42.536Z,3.00
2023-05-05T13:40:10.761Z,3.72
2023-05-05T13:42:37.669Z,7.32
2023-05-05T13:45:05.577Z,5.82
2023-05-05T13:47:32.962Z,7.28
2023-05-05T13:49:59.969Z,6.88
2023-05-05T13:52:27.584Z,6.22
2023-05-05T13:54:55.206Z,9.73
2023-05-05T13:57:22.143Z,4.20
2023-05-05T13:59:49.105Z,4.75
2023-05-05T14:02:16.070Z,5.40
2023-05-05T14:04:45.050Z,2.92
2023-05-05T14:07:12.037Z,4.05
2023-05-05T14:09:39.144Z,4.45
2023-05-05T14:12:06.250Z,7.38
2023-05-05T14:14:34.362Z,4.13
2023-05-05T14:17:01.408Z,6.97
2023-05-05T14:19:28.454Z,5.35
2023-05-05T14:21:55.686Z,5.18
2023-05-05T14:24:22.677Z,4.25
2023-05-05T14:26:49.655Z,6.47
2023-05-05T14:29:16.603Z,2.67
2023-05-05T14:31:44.225Z,6.22
2023-05-05T14:34:11.499Z,5.47
2023-05-05T14:36:38.410Z,7.68
2023-05-05T14:39:07.744Z,6.80
2023-05-05T14:41:34.708Z,6.72
2023-05-05T14:44:01.761Z,10.07
2023-05-05T14:46:28.882Z,8.10
2023-05-05T14:48:56.257Z,7.47
2023-05-05T14:51:23.417Z,7.95
2023-05-05T14:53:50.624Z,9.32
2023-05-05T14:56:17.907Z,5.15
2023-05-05T14:58:44.872Z,5.28
2023-05-05T15:01:12.006Z,4.93
2023-05-05T15:03:39.035Z,7.07
2023-05-05T15:06:07.772Z,6.20
2023-05-05T15:08:35.154Z,4.53
2023-05-05T15:11:02.669Z,6.45
2023-05-05T15:13:30.104Z,8.07
2023-05-05T15:15:57.355Z,7.85
2023-05-05T15:18:24.365Z,7.53
2023-05-05T15:20:51.378Z,4.95
2023-05-05T15:23:19.665Z,5.88
2023-05-05T15:25:46.762Z,6.55
2023-05-05T15:28:13.710Z,12.93
2023-05-05T15:30:40.771Z,7.25
2023-05-05T15:33:07.794Z,4.10
2023-05-05T15:35:34.732Z,9.10
2023-05-05T15:38:03.168Z,6.80
2023-05-05T15:40:30.303Z,5.32
2023-05-05T15:42:57.941Z,6.45
2023-05-05T15:45:25.009Z,3.58
2023-05-05T15:47:53.012Z,5.50
2023-05-05T15:50:20.324Z,3.45
2023-05-05T15:52:49.796Z,5.18
2023-05-05T15:55:17.530Z,6.65
2023-05-05T15:57:44.557Z,8.52
2023-05-05T16:00:12.483Z,7.70
2023-05-05T16:02:39.719Z,6.07
2023-05-05T16:05:07.568Z,7.15
2023-05-05T16:07:34.752Z,3.17
2023-05-05T16:10:01.729Z,5.03
2023-05-05T16:12:29.052Z,4.35
2023-05-05T16:14:56.066Z,7.55
2023-05-05T16:17:23.014Z,5.78
2023-05-05T16:19:50.075Z,7.95
2023-05-05T16:22:17.317Z,8.75
2023-05-05T16:24:45.382Z,7.53
2023-05-05T16:27:12.430Z,5.20
2023-05-05T16:29:39.413Z,6.93
2023-05-05T16:32:06.514Z,4.85
2023-05-05T16:34:33.532Z,7.15
2023-05-05T16:37:00.805Z,7.88
2023-05-05T16:39:27.885Z,9.18
2023-05-05T16:41:54.977Z,6.43
2023-05-05T16:44:22.096Z,5.90
2023-05-05T16:46:49.137Z,12.98
2023-05-05T16:49:16.201Z,6.72
2023-05-05T16:51:45.906Z,5.53
2023-05-05T16:54:13.176Z,7.00
2023-05-05T16:56:40.090Z,6.97
2023-05-05T16:59:07.142Z,4.95
2023-05-05T17:01:34.980Z,9.50
2023-05-05T17:04:04.769Z,8.68
2023-05-05T17:06:35.038Z,7.32
2023-05-05T17:09:02.071Z,7.90
2023-05-05T17:11:28.991Z,7.57
2023-05-05T17:13:56.355Z,5.07
2023-05-05T17:16:23.451Z,8.80
2023-05-05T17:18:50.664Z,6.68
2023-05-05T17:21:17.635Z,4.50
2023-05-05T17:23:44.682Z,7.18
2023-05-05T17:26:11.602Z,8.50
2023-05-05T17:28:38.724Z,6.03
2023-05-05T17:31:05.756Z,6.70
2023-05-05T17:33:32.796Z,5.97
2023-05-05T17:35:59.805Z,9.77
2023-05-05T17:38:26.749Z,8.45
2023-05-05T17:40:53.800Z,8.13
2023-05-05T17:43:20.825Z,8.45
2023-05-05T17:45:48.061Z,8.05
2023-05-05T17:48:15.401Z,8.30
2023-05-05T17:50:43.443Z,6.07
2023-05-05T17:53:11.136Z,6.85
2023-05-05T17:55:38.081Z,5.95
2023-05-05T17:58:05.112Z,6.78
2023-05-05T18:00:32.051Z,7.65
2023-05-05T18:03:00.879Z,8.45
2023-05-05T18:05:28.089Z,6.30
2023-05-05T18:07:55.090Z,9.00
2023-05-05T18:10:22.224Z,6.03
2023-05-05T18:12:49.233Z,8.13
2023-05-05T18:15:16.467Z,10.07
2023-05-05T18:17:44.159Z,7.57
2023-05-05T18:20:11.528Z,10.18
2023-05-05T18:22:38.778Z,7.30
2023-05-05T18:25:07.939Z,6.80
2023-05-05T18:27:36.056Z,6.97
2023-05-05T18:30:04.786Z,8.65
2023-05-05T18:32:32.433Z,6.70
2023-05-05T18:34:59.392Z,13.25
2023-05-05T18:37:26.369Z,10.05
2023-05-05T18:39:53.271Z,7.55
2023-05-05T18:42:20.227Z,5.50
2023-05-05T18:44:47.191Z,6.88
2023-05-05T18:47:14.135Z,9.77
2023-05-05T18:49:41.167Z,6.93
2023-05-05T18:52:08.229Z,14.82
2023-05-05T18:54:37.008Z,9.48
2023-05-05T18:57:05.081Z,12.50
2023-05-05T18:59:32.116Z,11.63
2023-05-05T19:01:59.534Z,12.30
2023-05-05T19:04:31.177Z,11.35
2023-05-05T19:06:59.795Z,7.13
2023-05-05T19:09:27.026Z,9.73
2023-05-05T19:11:53.971Z,11.18
2023-05-05T19:14:20.944Z,7.78
2023-05-05T19:16:48.947Z,7.93
2023-05-05T19:19:15.938Z,12.05
2023-05-05T19:21:43.002Z,17.23
2023-05-05T19:24:12.955Z,8.73
2023-05-05T19:26:40.232Z,7.22
2023-05-05T19:29:07.167Z,10.88
2023-05-05T19:31:34.274Z,9.13
2023-05-05T19:34:05.105Z,9.05
2023-05-05T19:36:33.310Z,8.50
2023-05-05T19:39:02.313Z,10.63
2023-05-05T19:41:30.883Z,9.52
2023-05-05T19:43:57.815Z,14.27
2023-05-05T19:46:27.630Z,9.95
2023-05-05T19:48:55.135Z,10.95
2023-05-05T19:51:22.285Z,10.10
2023-05-05T19:53:50.757Z,10.65
2023-05-05T19:56:17.769Z,8.10
2023-05-05T19:59:00.621Z,9.18
2023-05-05T20:01:29.518Z,6.88
2023-05-05T20:03:57.326Z,12.48
2023-05-05T20:06:24.746Z,7.50
2023-05-05T20:08:52.266Z,8.88
2023-05-05T20:11:21.104Z,10.50
2023-05-05T20:13:49.934Z,8.45
2023-05-05T20:16:17.953Z,10.32
2023-05-05T20:18:45.228Z,9.50
2023-05-05T20:21:12.461Z,12.00
2023-05-05T20:23:42.782Z,9.35
2023-05-05T20:26:10.040Z,9.20
2023-05-05T20:28:39.129Z,11.63
2023-05-05T20:31:07.085Z,11.20
2023-05-05T20:33:34.436Z,11.07
2023-05-05T20:36:02.272Z,15.98
2023-05-05T20:38:29.323Z,10.38
2023-05-05T20:40:56.374Z,11.23
2023-05-05T20:43:24.457Z,8.75
2023-05-05T20:45:51.698Z,13.15
2023-05-05T20:48:19.295Z,9.68
2023-05-05T20:50:46.387Z,13.45
2023-05-05T20:53:18.852Z,10.57
2023-05-05T20:55:46.197Z,12.07
2023-05-05T20:58:16.638Z,10.55
2023-05-05T21:00:44.269Z,13.15
2023-05-05T21:03:11.869Z,9.88
2023-05-05T21:05:41.145Z,12.23
2023-05-05T21:08:09.301Z,24.30
2023-05-05T21:10:36.787Z,9.93
2023-05-05T21:13:04.418Z,17.95
2023-05-05T21:15:31.968Z,13.30
2023-05-05T21:17:59.087Z,9.63
2023-05-05T21:20:26.719Z,9.27
2023-05-05T21:22:53.811Z,8.75
2023-05-05T21:25:21.781Z,14.82
2023-05-05T21:27:49.454Z,12.32
2023-05-05T21:30:17.342Z,10.43
2023-05-05T21:32:45.700Z,9.48
2023-05-05T21:35:12.746Z,8.85
2023-05-05T21:37:40.359Z,9.95
2023-05-05T21:40:14.004Z,8.55
2023-05-05T21:42:42.725Z,10.20
2023-05-05T21:45:12.215Z,10.73
2023-05-05T21:47:39.677Z,11.32
2023-05-05T21:50:08.341Z,12.57
2023-05-05T21:52:35.557Z,9.07
2023-05-05T21:55:05.281Z,10.02
2023-05-05T21:57:32.387Z,17.83
2023-05-05T21:59:59.458Z,16.75
2023-05-05T22:02:26.467Z,16.80
2023-05-05T22:04:55.951Z,9.95
2023-05-05T22:07:24.803Z,10.05
2023-05-05T22:09:57.805Z,14.10
2023-05-05T22:12:26.116Z,11.07
2023-05-05T22:14:53.361Z,11.15
2023-05-05T22:17:20.716Z,10.52
2023-05-05T22:19:50.534Z,12.43
2023-05-05T22:22:21.778Z,12.73
2023-05-05T22:24:49.287Z,10.90
2023-05-05T22:27:17.287Z,8.95
2023-05-05T22:29:44.793Z,8.75
2023-05-05T22:32:12.496Z,10.07
2023-05-05T22:34:39.719Z,7.40
2023-05-05T22:37:07.773Z,10.15
2023-05-05T22:39:35.505Z,9.55
2023-05-05T22:42:03.729Z,9.60
2023-05-05T22:44:30.970Z,11.50
2023-05-05T22:46:58.782Z,11.90
2023-05-05T22:49:26.444Z,8.43
2023-05-05T22:51:53.638Z,9.82
2023-05-05T22:54:20.850Z,13.07
2023-05-05T22:56:48.237Z,9.73
2023-05-05T22:59:15.534Z,11.73
2023-05-05T23:01:42.913Z,9.30
2023-05-05T23:04:09.953Z,12.50
2023-05-05T23:06:37.081Z,8.55
2023-05-05T23:09:04.375Z,11.05
2023-05-05T23:11:31.371Z,9.90
2023-05-05T23:13:58.531Z,8.77
2023-05-05T23:16:25.841Z,9.15
2023-05-05T23:18:52.820Z,9.75
2023-05-05T23:21:19.924Z,9.63
2023-05-05T23:23:47.204Z,11.25
2023-05-05T23:26:14.145Z,10.63
2023-05-05T23:28:41.577Z,15.25
2023-05-05T23:31:09.272Z,12.77
2023-05-05T23:33:36.231Z,10.18
2023-05-05T23:36:03.214Z,13.15
2023-05-05T23:38:30.317Z,22.33
2023-05-05T23:40:57.238Z,13.00
2023-05-05T23:43:24.206Z,12.82
2023-05-05T23:45:51.579Z,14.63
2023-05-05T23:48:18.600Z,16.80
2023-05-05T23:50:45.663Z,17.25
2023-05-05T23:53:12.883Z,14.68
2023-05-05T23:55:39.896Z,14.82
2023-05-05T23:58:06.926Z,15.82
